createdAt,value
2019-05-11T00:01:35.426Z,10.90
2019-05-11T00:04:03.013Z,10.90
2019-05-11T00:06:31.177Z,10.90
2019-05-11T00:08:59.035Z,10.80
2019-05-11T00:11:26.908Z,10.80
2019-05-11T00:13:54.456Z,10.80
2019-05-11T00:16:22.051Z,10.80
2019-05-11T00:18:50.597Z,10.80
2019-05-11T00:21:18.488Z,10.80
2019-05-11T00:23:46.677Z,10.70
2019-05-11T00:26:14.323Z,10.70
2019-05-11T00:28:41.562Z,10.70
2019-05-11T00:31:09.043Z,10.70
2019-05-11T00:33:37.206Z,10.60
2019-05-11T00:36:05.218Z,10.60
2019-05-11T00:38:32.452Z,10.60
2019-05-11T00:41:00.331Z,10.60
2019-05-11T00:43:27.595Z,10.60
2019-05-11T00:45:54.786Z,10.60
2019-05-11T00:48:22.616Z,10.60
2019-05-11T00:50:49.929Z,10.60
2019-05-11T00:53:17.431Z,10.60
2019-05-11T00:55:45.528Z,10.60
2019-05-11T00:58:12.838Z,10.60
2019-05-11T01:00:40.148Z,10.60
2019-05-11T01:03:07.736Z,10.60
2019-05-11T01:05:35.685Z,10.60
2019-05-11T01:08:03.278Z,10.50
2019-05-11T01:10:41.729Z,10.50
2019-05-11T01:13:00.634Z,10.50
2019-05-11T01:15:27.846Z,10.60
2019-05-11T01:17:55.426Z,10.60
2019-05-11T01:20:23.708Z,10.50
2019-05-11T01:22:51.259Z,10.50
2019-05-11T01:25:18.864Z,10.50
2019-05-11T01:27:46.406Z,10.50
2019-05-11T01:30:13.991Z,10.50
2019-05-11T01:32:41.274Z,10.50
2019-05-11T01:35:08.640Z,10.50
2019-05-11T01:37:36.161Z,10.60
2019-05-11T01:40:03.523Z,10.50
2019-05-11T01:42:31.064Z,10.50
2019-05-11T01:44:58.215Z,10.50
2019-05-11T01:47:25.598Z,10.50
2019-05-11T01:49:53.059Z,10.50
2019-05-11T01:52:20.539Z,10.50
2019-05-11T01:54:47.958Z,10.50
2019-05-11T01:57:15.771Z,10.40
2019-05-11T01:59:43.851Z,10.50
2019-05-11T02:02:11.615Z,10.50
2019-05-11T02:04:38.726Z,10.50
2019-05-11T02:07:05.956Z,10.50
2019-05-11T02:09:33.566Z,10.50
2019-05-11T02:12:01.138Z,10.50
2019-05-11T02:14:29.120Z,10.50
2019-05-11T02:16:56.527Z,10.60
2019-05-11T02:19:24.446Z,10.50
2019-05-11T02:21:52.339Z,10.50
2019-05-11T02:24:20.555Z,10.50
2019-05-11T02:26:47.849Z,10.50
2019-05-11T02:29:16.057Z,10.50
2019-05-11T02:31:43.944Z,10.50
2019-05-11T02:34:11.699Z,10.50
2019-05-11T02:36:39.155Z,10.40
2019-05-11T02:39:07.175Z,10.50
2019-05-11T02:41:37.023Z,10.40
2019-05-11T02:44:03.660Z,10.40
2019-05-11T02:46:31.563Z,10.40
2019-05-11T02:48:59.437Z,10.40
2019-05-11T02:51:28.708Z,10.40
2019-05-11T02:53:56.087Z,10.40
2019-05-11T02:56:23.602Z,10.40
2019-05-11T02:58:51.061Z,10.40
2019-05-11T03:01:18.294Z,10.30
2019-05-11T03:03:46.353Z,10.30
2019-05-11T03:06:13.939Z,10.30
2019-05-11T03:08:41.250Z,10.30
2019-05-11T03:11:08.433Z,10.30
2019-05-11T03:13:35.776Z,10.30
2019-05-11T03:16:03.025Z,10.30
2019-05-11T03:18:30.208Z,10.30
2019-05-11T03:20:58.185Z,10.30
2019-05-11T03:23:25.896Z,10.30
2019-05-11T03:25:54.038Z,10.30
2019-05-11T03:28:21.891Z,10.30
2019-05-11T03:30:49.642Z,10.30
2019-05-11T03:33:17.015Z,10.30
2019-05-11T03:35:44.652Z,10.30
2019-05-11T03:38:12.789Z,10.30
2019-05-11T03:40:40.442Z,10.30
2019-05-11T03:43:08.826Z,10.30
2019-05-11T03:45:36.690Z,10.30
2019-05-11T03:48:03.944Z,10.30
2019-05-11T03:50:31.827Z,10.30
2019-05-11T03:53:00.047Z,10.30
2019-05-11T03:55:27.689Z,10.30
2019-05-11T03:57:55.043Z,10.30
2019-05-11T04:00:22.390Z,10.30
2019-05-11T04:02:50.020Z,10.30
2019-05-11T04:05:17.514Z,10.20
2019-05-11T04:07:45.098Z,10.30
2019-05-11T04:10:12.599Z,10.20
2019-05-11T04:12:40.420Z,10.20
2019-05-11T04:15:09.639Z,10.20
2019-05-11T04:17:36.859Z,10.20
2019-05-11T04:20:04.439Z,10.20
2019-05-11T04:22:32.029Z,10.20
2019-05-11T04:24:59.760Z,10.20
2019-05-11T04:27:27.954Z,10.20
2019-05-11T04:29:55.515Z,10.20
2019-05-11T04:32:23.079Z,10.20
2019-05-11T04:34:51.104Z,10.10
2019-05-11T04:37:18.924Z,10.10
2019-05-11T04:39:46.545Z,10.10
2019-05-11T04:42:14.351Z,10.20
2019-05-11T04:44:41.679Z,10.10
2019-05-11T04:47:08.960Z,10.10
2019-05-11T04:49:36.508Z,10.20
2019-05-11T04:52:04.414Z,10.10
2019-05-11T04:54:31.741Z,10.10
2019-05-11T04:56:59.638Z,10.10
2019-05-11T04:59:27.225Z,10.10
2019-05-11T05:01:55.105Z,10.10
2019-05-11T05:04:22.235Z,10.10
2019-05-11T05:06:59.457Z,10.10
2019-05-11T05:09:20.153Z,10.10
2019-05-11T05:11:47.336Z,10.10
2019-05-11T05:14:14.612Z,10.10
2019-05-11T05:16:42.482Z,10.10
2019-05-11T05:19:10.370Z,10.00
2019-05-11T05:21:38.274Z,10.10
2019-05-11T05:24:06.131Z,10.10
2019-05-11T05:26:33.360Z,10.00
2019-05-11T05:29:00.987Z,10.00
2019-05-11T05:31:28.826Z,10.00
2019-05-11T05:33:56.599Z,10.00
2019-05-11T05:36:25.085Z,10.00
2019-05-11T05:38:53.154Z,10.00
2019-05-11T05:41:21.013Z,10.00
2019-05-11T05:43:48.257Z,10.00
2019-05-11T05:46:16.048Z,10.00
2019-05-11T05:48:43.987Z,10.00
2019-05-11T05:51:11.422Z,10.00
2019-05-11T05:53:38.626Z,10.00
2019-05-11T05:56:05.875Z,10.00
2019-05-11T05:58:34.523Z,10.00
2019-05-11T06:01:02.227Z,10.00
2019-05-11T06:03:29.622Z,10.00
2019-05-11T06:05:57.044Z,10.00
2019-05-11T06:08:24.951Z,10.00
2019-05-11T06:10:52.798Z,10.00
2019-05-11T06:13:20.284Z,10.00
2019-05-11T06:15:47.754Z,10.00
2019-05-11T06:18:15.453Z,10.00
2019-05-11T06:20:43.669Z,9.90
2019-05-11T06:23:10.924Z,9.90
2019-05-11T06:25:39.030Z,9.90
2019-05-11T06:28:06.669Z,9.90
2019-05-11T06:30:34.987Z,9.90
2019-05-11T06:33:02.502Z,9.90
2019-05-11T06:35:30.110Z,9.90
2019-05-11T06:37:57.495Z,9.90
2019-05-11T06:40:28.396Z,9.90
2019-05-11T06:42:53.787Z,9.90
2019-05-11T06:45:21.284Z,9.90
2019-05-11T06:47:48.874Z,9.90
2019-05-11T06:50:16.695Z,9.90
2019-05-11T06:52:46.131Z,9.90
2019-05-11T06:55:13.772Z,10.00
2019-05-11T06:57:41.450Z,9.90
2019-05-11T07:00:09.245Z,10.00
2019-05-11T07:02:38.640Z,10.00
2019-05-11T07:05:05.989Z,10.00
2019-05-11T07:07:46.577Z,9.90
2019-05-11T07:10:03.344Z,10.00
2019-05-11T07:12:30.940Z,10.00
2019-05-11T07:14:58.762Z,10.00
2019-05-11T07:17:26.687Z,10.00
2019-05-11T07:19:55.080Z,10.00
2019-05-11T07:22:22.799Z,10.00
2019-05-11T07:24:50.519Z,10.00
2019-05-11T07:27:17.974Z,10.10
2019-05-11T07:29:45.530Z,10.10
2019-05-11T07:32:21.942Z,10.10
2019-05-11T07:34:42.094Z,10.10
2019-05-11T07:37:09.695Z,10.10
2019-05-11T07:39:38.343Z,10.10
2019-05-11T07:42:07.770Z,10.10
2019-05-11T07:44:38.806Z,10.20
2019-05-11T07:47:04.678Z,10.20
2019-05-11T07:49:32.741Z,10.20
2019-05-11T07:52:00.249Z,10.20
2019-05-11T07:54:28.298Z,10.30
2019-05-11T07:56:58.218Z,10.30
2019-05-11T07:59:25.776Z,10.30
2019-05-11T08:01:53.019Z,10.30
2019-05-11T08:04:20.842Z,10.30
2019-05-11T08:06:48.095Z,10.40
2019-05-11T08:09:15.676Z,10.40
2019-05-11T08:11:42.955Z,10.40
2019-05-11T08:14:11.224Z,10.40
2019-05-11T08:16:39.255Z,10.40
2019-05-11T08:19:10.325Z,10.50
2019-05-11T08:21:38.667Z,10.50
2019-05-11T08:24:05.660Z,10.50
2019-05-11T08:26:33.082Z,10.50
2019-05-11T08:29:00.530Z,10.40
2019-05-11T08:31:28.119Z,10.50
2019-05-11T08:33:58.101Z,10.50
2019-05-11T08:36:28.949Z,10.50
2019-05-11T08:38:58.542Z,10.50
2019-05-11T08:41:27.958Z,10.50
2019-05-11T08:43:55.338Z,10.50
2019-05-11T08:46:22.730Z,10.50
2019-05-11T08:48:50.220Z,10.50
2019-05-11T08:51:18.726Z,10.50
2019-05-11T08:53:48.039Z,10.50
2019-05-11T08:56:15.878Z,10.50
2019-05-11T08:58:43.656Z,10.50
2019-05-11T09:01:11.187Z,10.60
2019-05-11T09:03:38.992Z,10.60
2019-05-11T09:06:08.419Z,10.70
2019-05-11T09:08:35.938Z,10.60
2019-05-11T09:11:04.024Z,10.60
2019-05-11T09:13:31.578Z,10.60
2019-05-11T09:15:59.056Z,10.50
2019-05-11T09:18:27.967Z,10.50
2019-05-11T09:20:57.675Z,10.60
2019-05-11T09:23:34.535Z,10.50
2019-05-11T09:25:54.695Z,10.50
2019-05-11T09:28:21.955Z,10.60
2019-05-11T09:30:49.403Z,10.60
2019-05-11T09:33:20.506Z,10.60
2019-05-11T09:35:52.597Z,10.60
2019-05-11T09:38:18.578Z,10.60
2019-05-11T09:40:47.967Z,10.70
2019-05-11T09:43:17.712Z,10.70
2019-05-11T09:45:48.729Z,10.80
2019-05-11T09:48:14.587Z,10.70
2019-05-11T09:50:41.866Z,10.70
2019-05-11T09:53:09.366Z,10.70
2019-05-11T09:55:38.862Z,10.80
2019-05-11T09:58:08.344Z,10.70
2019-05-11T10:00:35.110Z,10.70
2019-05-11T10:03:03.051Z,10.80
2019-05-11T10:05:30.250Z,10.90
2019-05-11T10:07:58.871Z,10.80
2019-05-11T10:10:28.922Z,10.80
2019-05-11T10:12:59.244Z,10.80
2019-05-11T10:15:27.950Z,10.80
2019-05-11T10:17:55.606Z,10.80
2019-05-11T10:20:24.074Z,10.90
2019-05-11T10:22:51.313Z,10.80
2019-05-11T10:25:18.603Z,10.80
2019-05-11T10:27:46.105Z,10.80
2019-05-11T10:30:13.927Z,10.90
2019-05-11T10:32:42.206Z,10.80
2019-05-11T10:35:10.299Z,10.80
2019-05-11T10:37:38.959Z,10.80
2019-05-11T10:40:09.343Z,10.90
2019-05-11T10:42:37.898Z,10.80
2019-05-11T10:45:05.893Z,10.90
2019-05-11T10:47:33.751Z,10.90
2019-05-11T10:50:01.293Z,10.90
2019-05-11T10:52:28.786Z,10.90
2019-05-11T10:54:58.398Z,10.90
2019-05-11T10:57:28.110Z,10.90
2019-05-11T10:59:57.977Z,10.90
2019-05-11T11:02:27.856Z,10.90
2019-05-11T11:04:56.099Z,10.90
2019-05-11T11:07:23.531Z,10.90
2019-05-11T11:09:50.859Z,10.90
2019-05-11T11:12:18.844Z,10.90
2019-05-11T11:14:48.208Z,10.90
2019-05-11T11:17:18.917Z,10.90
2019-05-11T11:19:48.458Z,11.00
2019-05-11T11:22:35.458Z,10.90
2019-05-11T11:24:44.509Z,10.90
2019-05-11T11:27:11.729Z,11.00
2019-05-11T11:29:40.810Z,11.00
2019-05-11T11:32:08.499Z,11.00
2019-05-11T11:34:38.235Z,10.90
2019-05-11T11:37:05.796Z,10.90
2019-05-11T11:39:33.281Z,11.00
2019-05-11T11:42:00.803Z,11.00
2019-05-11T11:44:28.730Z,11.00
2019-05-11T11:46:58.764Z,11.00
2019-05-11T11:49:28.215Z,11.00
2019-05-11T11:51:57.776Z,11.10
2019-05-11T11:54:28.481Z,11.10
2019-05-11T11:56:55.377Z,11.10
2019-05-11T11:59:22.784Z,11.20
2019-05-11T12:01:50.651Z,11.20
2019-05-11T12:04:18.782Z,11.20
2019-05-11T12:06:49.076Z,11.20
2019-05-11T12:09:18.154Z,11.30
2019-05-11T12:11:45.601Z,11.30
2019-05-11T12:14:13.125Z,11.40
2019-05-11T12:16:40.387Z,11.40
2019-05-11T12:19:08.343Z,11.50
2019-05-11T12:21:37.921Z,11.60
2019-05-11T12:24:07.880Z,11.70
2019-05-11T12:26:35.187Z,11.80
2019-05-11T12:29:02.663Z,11.90
2019-05-11T12:31:32.571Z,12.00
2019-05-11T12:33:59.827Z,12.10
2019-05-11T12:36:28.058Z,12.20
2019-05-11T12:38:58.000Z,12.40
2019-05-11T12:41:27.906Z,12.40
2019-05-11T12:43:55.013Z,12.50
2019-05-11T12:46:22.879Z,12.60
2019-05-11T12:48:50.142Z,12.60
2019-05-11T12:51:18.588Z,12.70
2019-05-11T12:53:47.650Z,12.90
2019-05-11T12:56:15.601Z,13.10
2019-05-11T12:58:43.218Z,13.10
2019-05-11T13:01:10.808Z,13.20
2019-05-11T13:03:39.019Z,13.30
2019-05-11T13:06:08.217Z,13.30
2019-05-11T13:08:35.694Z,13.40
2019-05-11T13:11:03.231Z,13.40
2019-05-11T13:13:30.798Z,13.50
2019-05-11T13:15:58.719Z,13.50
2019-05-11T13:18:27.891Z,13.60
2019-05-11T13:20:55.967Z,13.70
2019-05-11T13:23:23.719Z,14.00
2019-05-11T13:25:50.923Z,13.60
2019-05-11T13:28:18.423Z,13.50
2019-05-11T13:30:48.601Z,13.40
2019-05-11T13:33:16.024Z,13.50
2019-05-11T13:35:43.646Z,13.40
2019-05-11T13:38:11.253Z,13.50
2019-05-11T13:40:38.818Z,13.50
2019-05-11T13:43:08.274Z,13.70
2019-05-11T13:45:35.735Z,13.70
2019-05-11T13:48:03.542Z,13.70
2019-05-11T13:50:31.439Z,13.70
2019-05-11T13:52:59.640Z,13.70
2019-05-11T13:55:28.450Z,13.70
2019-05-11T13:57:57.849Z,13.70
2019-05-11T14:00:25.258Z,13.80
2019-05-11T14:02:55.097Z,13.80
2019-05-11T14:05:22.415Z,13.80
2019-05-11T14:07:50.325Z,13.80
2019-05-11T14:10:18.222Z,13.70
2019-05-11T14:12:47.720Z,13.70
2019-05-11T14:15:18.759Z,13.70
2019-05-11T14:17:48.041Z,13.80
2019-05-11T14:20:18.771Z,13.70
2019-05-11T14:22:47.807Z,13.70
2019-05-11T14:25:15.018Z,13.80
2019-05-11T14:27:42.429Z,13.80
2019-05-11T14:30:10.014Z,14.00
2019-05-11T14:32:38.805Z,14.10
2019-05-11T14:35:11.896Z,14.20
2019-05-11T14:37:37.938Z,14.20
2019-05-11T14:40:05.810Z,14.20
2019-05-11T14:42:34.043Z,14.20
2019-05-11T14:45:01.259Z,14.20
2019-05-11T14:47:28.758Z,14.30
2019-05-11T14:49:57.903Z,14.30
2019-05-11T14:52:27.937Z,14.30
2019-05-11T14:54:55.338Z,14.30
2019-05-11T14:57:22.560Z,14.20
2019-05-11T14:59:49.768Z,14.30
2019-05-11T15:02:51.999Z,14.30
2019-05-11T15:05:20.658Z,14.30
2019-05-11T15:07:49.181Z,14.40
2019-05-11T15:10:18.750Z,14.50
2019-05-11T15:12:48.645Z,14.60
2019-05-11T15:15:18.416Z,14.60
2019-05-11T15:17:45.314Z,14.70
2019-05-11T15:20:13.280Z,14.70
2019-05-11T15:22:40.467Z,14.70
2019-05-11T15:25:12.043Z,14.80
2019-05-11T15:27:39.614Z,14.80
2019-05-11T15:30:08.026Z,14.70
2019-05-11T15:32:37.584Z,14.70
2019-05-11T15:35:08.074Z,14.70
2019-05-11T15:37:35.910Z,14.70
2019-05-11T15:40:13.676Z,14.60
2019-05-11T15:42:41.209Z,14.60
2019-05-11T15:45:10.674Z,14.70
2019-05-11T15:47:38.652Z,14.60
2019-05-11T15:50:08.316Z,14.60
2019-05-11T15:52:39.944Z,14.50
2019-05-11T15:55:08.098Z,14.50
2019-05-11T15:57:35.056Z,14.40
2019-05-11T16:00:03.088Z,14.40
2019-05-11T16:02:30.832Z,14.30
2019-05-11T16:04:58.642Z,14.30
2019-05-11T16:07:28.036Z,14.20
2019-05-11T16:09:57.715Z,14.20
2019-05-11T16:12:24.999Z,14.20
2019-05-11T16:14:52.490Z,14.20
2019-05-11T16:17:20.119Z,14.30
2019-05-11T16:19:49.021Z,14.30
2019-05-11T16:22:20.592Z,14.30
2019-05-11T16:24:48.621Z,14.30
2019-05-11T16:27:18.259Z,14.30
2019-05-11T16:29:47.761Z,14.30
2019-05-11T16:32:14.487Z,14.30
2019-05-11T16:34:42.192Z,14.20
2019-05-11T16:37:10.243Z,14.20
2019-05-11T16:39:38.480Z,14.20
2019-05-11T16:42:08.323Z,14.10
2019-05-11T16:44:37.863Z,14.00
2019-05-11T16:47:07.905Z,14.00
2019-05-11T16:49:35.131Z,13.90
2019-05-11T16:52:02.370Z,13.90
2019-05-11T16:54:29.975Z,13.80
2019-05-11T16:56:58.011Z,13.80
2019-05-11T16:59:25.464Z,13.70
2019-05-11T17:01:53.310Z,13.70
2019-05-11T17:04:20.739Z,13.70
2019-05-11T17:06:48.772Z,13.60
2019-05-11T17:09:18.051Z,13.70
2019-05-11T17:11:45.694Z,13.60
2019-05-11T17:14:13.598Z,13.60
2019-05-11T17:16:41.288Z,13.60
2019-05-11T17:19:09.116Z,13.50
2019-05-11T17:21:38.163Z,13.60
2019-05-11T17:24:06.579Z,13.60
2019-05-11T17:26:34.201Z,13.60
2019-05-11T17:29:02.134Z,13.60
2019-05-11T17:31:29.380Z,13.60
2019-05-11T17:33:58.083Z,13.60
2019-05-11T17:36:27.785Z,13.50
2019-05-11T17:38:54.511Z,13.50
2019-05-11T17:41:21.633Z,13.50
2019-05-11T17:43:50.583Z,13.40
2019-05-11T17:46:18.645Z,13.40
2019-05-11T17:48:46.277Z,13.40
2019-05-11T17:51:21.183Z,13.40
2019-05-11T17:53:43.595Z,13.40
2019-05-11T17:56:11.091Z,13.40
2019-05-11T17:58:38.660Z,13.30
2019-05-11T18:01:06.484Z,13.30
2019-05-11T18:03:34.615Z,13.30
2019-05-11T18:06:02.206Z,13.20
2019-05-11T18:08:30.990Z,13.20
2019-05-11T18:10:58.778Z,13.20
2019-05-11T18:13:28.395Z,13.20
2019-05-11T18:15:57.770Z,13.10
2019-05-11T18:18:25.488Z,13.10
2019-05-11T18:20:53.654Z,13.10
2019-05-11T18:23:20.881Z,13.10
2019-05-11T18:25:48.486Z,13.00
2019-05-11T18:28:18.195Z,13.00
2019-05-11T18:30:45.437Z,13.00
2019-05-11T18:33:12.750Z,13.00
2019-05-11T18:35:40.633Z,12.90
2019-05-11T18:38:08.692Z,12.90
2019-05-11T18:40:38.009Z,12.80
2019-05-11T18:43:05.595Z,12.80
2019-05-11T18:45:32.838Z,12.80
2019-05-11T18:48:00.064Z,12.70
2019-05-11T18:50:31.061Z,12.70
2019-05-11T18:52:58.150Z,12.70
2019-05-11T18:55:27.942Z,12.60
2019-05-11T18:57:54.996Z,12.60
2019-05-11T19:00:22.791Z,12.60
2019-05-11T19:02:50.078Z,12.50
2019-05-11T19:05:18.001Z,12.50
2019-05-11T19:07:47.938Z,12.40
2019-05-11T19:10:14.882Z,12.40
2019-05-11T19:12:42.818Z,12.40
2019-05-11T19:15:11.174Z,12.30
2019-05-11T19:17:38.739Z,12.30
2019-05-11T19:20:08.444Z,12.20
2019-05-11T19:22:35.762Z,12.20
2019-05-11T19:25:03.189Z,12.30
2019-05-11T19:27:31.028Z,12.10
2019-05-11T19:30:01.575Z,12.00
2019-05-11T19:32:30.498Z,12.10
2019-05-11T19:34:58.212Z,12.00
2019-05-11T19:37:27.936Z,12.00
2019-05-11T19:39:55.008Z,11.80
2019-05-11T19:42:22.244Z,11.90
2019-05-11T19:44:49.511Z,11.90
2019-05-11T19:47:18.061Z,11.80
2019-05-11T19:49:47.356Z,11.80
2019-05-11T19:52:14.898Z,11.70
2019-05-11T19:54:42.649Z,11.60
2019-05-11T19:57:10.299Z,11.60
2019-05-11T19:59:38.758Z,11.50
2019-05-11T20:02:08.417Z,11.40
2019-05-11T20:04:35.975Z,11.40
2019-05-11T20:07:03.602Z,11.30
2019-05-11T20:09:31.814Z,11.30
2019-05-11T20:11:59.007Z,11.20
2019-05-11T20:14:28.308Z,11.10
2019-05-11T20:16:55.658Z,11.10
2019-05-11T20:19:23.198Z,11.00
2019-05-11T20:21:50.717Z,11.00
2019-05-11T20:24:18.736Z,11.00
2019-05-11T20:26:46.494Z,10.90
2019-05-11T20:29:14.176Z,10.90
2019-05-11T20:31:41.840Z,10.80
2019-05-11T20:34:08.912Z,10.70
2019-05-11T20:36:36.450Z,10.70
2019-05-11T20:39:06.461Z,10.70
2019-05-11T20:41:34.659Z,10.60
2019-05-11T20:44:02.187Z,10.60
2019-05-11T20:46:29.934Z,10.60
2019-05-11T20:48:57.957Z,10.50
2019-05-11T20:51:34.137Z,10.50
2019-05-11T20:53:54.750Z,10.50
2019-05-11T20:56:22.398Z,10.50
2019-05-11T20:58:58.754Z,10.40
2019-05-11T21:01:28.540Z,10.40
2019-05-11T21:03:58.201Z,10.40
2019-05-11T21:06:25.100Z,10.40
2019-05-11T21:08:52.970Z,10.30
2019-05-11T21:11:20.886Z,10.30
2019-05-11T21:13:48.441Z,10.30
2019-05-11T21:16:15.971Z,10.30
2019-05-11T21:18:43.442Z,10.20
2019-05-11T21:21:11.573Z,10.20
2019-05-11T21:23:40.669Z,10.10
2019-05-11T21:26:09.991Z,10.10
2019-05-11T21:28:38.067Z,10.10
2019-05-11T21:31:08.005Z,10.00
2019-05-11T21:33:37.726Z,10.10
2019-05-11T21:36:05.608Z,9.90
2019-05-11T21:38:33.380Z,9.90
2019-05-11T21:41:00.714Z,9.80
2019-05-11T21:43:28.449Z,9.80
2019-05-11T21:45:58.187Z,9.80
2019-05-11T21:48:27.906Z,9.80
2019-05-11T21:50:55.321Z,9.80
2019-05-11T21:53:23.395Z,9.90
2019-05-11T21:55:52.073Z,9.90
2019-05-11T21:58:20.231Z,9.80
2019-05-11T22:00:49.249Z,9.80
2019-05-11T22:03:18.774Z,9.80
2019-05-11T22:05:48.358Z,9.80
2019-05-11T22:08:17.694Z,9.80
2019-05-11T22:10:45.125Z,9.80
2019-05-11T22:13:13.020Z,9.70
2019-05-11T22:15:40.843Z,9.70
2019-05-11T22:18:08.767Z,9.60
2019-05-11T22:20:40.555Z,9.70
2019-05-11T22:23:05.738Z,9.60
2019-05-11T22:25:32.943Z,9.60
2019-05-11T22:28:00.506Z,9.60
2019-05-11T22:30:28.227Z,9.50
2019-05-11T22:32:55.671Z,9.40
2019-05-11T22:35:25.051Z,9.50
2019-05-11T22:37:52.980Z,9.40
2019-05-11T22:40:20.203Z,9.40
2019-05-11T22:42:47.764Z,9.40
2019-05-11T22:45:15.964Z,9.40
2019-05-11T22:47:48.017Z,9.50
2019-05-11T22:50:14.563Z,9.50
2019-05-11T22:52:41.804Z,9.50
2019-05-11T22:55:11.865Z,9.50
2019-05-11T22:57:39.522Z,9.50
2019-05-11T23:00:09.319Z,9.60
2019-05-11T23:02:38.007Z,9.50
2019-05-11T23:05:08.168Z,9.50
2019-05-11T23:07:37.681Z,9.50
2019-05-11T23:10:05.334Z,9.50
2019-05-11T23:12:32.887Z,9.50
2019-05-11T23:15:09.661Z,9.50
2019-05-11T23:17:38.616Z,9.50
2019-05-11T23:20:07.121Z,9.40
2019-05-11T23:22:52.331Z,9.40
2019-05-11T23:25:08.080Z,9.30
2019-05-11T23:27:39.106Z,9.30
2019-05-11T23:30:05.594Z,9.20
2019-05-11T23:32:32.844Z,9.20
2019-05-11T23:35:00.058Z,9.20
2019-05-11T23:37:27.923Z,9.10
2019-05-11T23:39:55.303Z,9.10
2019-05-11T23:42:23.008Z,9.00
2019-05-11T23:44:50.223Z,9.00
2019-05-11T23:47:20.236Z,9.00
2019-05-11T23:49:47.964Z,9.00
2019-05-11T23:52:17.947Z,8.90
2019-05-11T23:54:45.103Z,8.90
2019-05-11T23:57:13.029Z,8.90
2019-05-11T23:59:40.637Z,8.90
